Time;durP1;ratioP1;P1;durP2;ratioP2;P2;SDS_P1;SDS_P2;PMS_P1;PMS_P2;Temp;Humidity;BMP_temperature;BMP_pressure;BME280_temperature;BME280_humidity;BME280_pressure;Samples;Min_cycle;Max_cycle;Signal;HPM_P1;HPM_P2
2022/06/09 00:01:28;;;;;;;1.63;1.30;;;17.80;99.90;;;;;;5014198;28;20026;-80
2022/06/09 00:04:02;;;;;;;2.58;1.10;;;17.80;99.90;;;;;;5014089;28;20088;-81
2022/06/09 00:06:38;;;;;;;1.30;0.80;;;17.80;99.90;;;;;;5014847;28;20029;-80
2022/06/09 00:09:05;;;;;;;1.45;1.23;;;17.80;99.90;;;;;;5013107;28;20034;-80
2022/06/09 00:11:35;;;;;;;1.85;1.08;;;17.80;99.90;;;;;;5014062;28;20116;-81
2022/06/09 00:14:01;;;;;;;1.73;1.10;;;17.70;99.90;;;;;;5014110;28;20033;-80
2022/06/09 00:16:27;;;;;;;3.60;1.20;;;17.70;99.90;;;;;;5014261;28;20034;-81
2022/06/09 00:18:53;;;;;;;3.00;1.05;;;17.70;99.90;;;;;;5013908;28;20073;-81
2022/06/09 00:21:21;;;;;;;4.00;1.45;;;17.70;99.90;;;;;;5014171;28;20053;-81
2022/06/09 00:23:47;;;;;;;2.15;1.23;;;17.70;99.90;;;;;;5014005;28;20108;-80
2022/06/09 00:26:13;;;;;;;2.25;1.30;;;17.60;99.90;;;;;;5014001;28;20038;-81
2022/06/09 00:28:38;;;;;;;1.52;1.10;;;17.60;99.90;;;;;;5012623;28;20455;-80
2022/06/09 00:31:10;;;;;;;2.40;1.70;;;17.60;99.90;;;;;;5013558;28;20062;-81
2022/06/09 00:33:35;;;;;;;2.80;1.20;;;17.60;99.90;;;;;;5014145;28;20387;-81
2022/06/09 00:36:01;;;;;;;3.35;1.10;;;17.60;99.90;;;;;;5013629;28;20034;-80
2022/06/09 00:38:27;;;;;;;3.03;1.10;;;17.50;99.90;;;;;;5013675;28;20154;-81
2022/06/09 00:41:00;;;;;;;2.25;1.38;;;17.50;99.90;;;;;;5013855;28;20034;-81
2022/06/09 00:43:29;;;;;;;4.82;1.77;;;17.40;99.90;;;;;;5013515;28;20448;-81
2022/06/09 00:46:18;;;;;;;3.83;1.60;;;17.40;99.90;;;;;;5013562;28;20026;-80
2022/06/09 00:48:48;;;;;;;2.35;1.30;;;17.40;99.90;;;;;;5013767;28;20026;-80
2022/06/09 00:51:26;;;;;;;5.13;1.70;;;17.40;99.90;;;;;;5013573;28;20030;-80
2022/06/09 00:53:57;;;;;;;3.53;2.08;;;17.50;99.90;;;;;;5013454;28;20038;-82
2022/06/09 00:56:24;;;;;;;2.92;1.73;;;17.50;99.90;;;;;;5013504;28;20026;-81
2022/06/09 00:58:53;;;;;;;2.10;1.70;;;17.50;99.90;;;;;;5013425;28;20474;-81
2022/06/09 01:01:20;;;;;;;3.30;1.85;;;17.40;99.90;;;;;;5012030;28;20514;-81
2022/06/09 01:03:57;;;;;;;2.35;2.10;;;17.40;99.90;;;;;;5012669;28;20138;-81
2022/06/09 01:06:33;;;;;;;4.22;2.22;;;17.50;99.90;;;;;;5013275;28;20046;-81
2022/06/09 01:09:09;;;;;;;3.20;2.28;;;17.40;99.90;;;;;;5012993;28;20088;-81
2022/06/09 01:11:35;;;;;;;5.47;2.80;;;17.40;99.90;;;;;;5012994;28;20034;-79
2022/06/09 01:14:01;;;;;;;5.20;2.70;;;17.40;99.90;;;;;;5012785;28;20191;-80
2022/06/09 01:16:59;;;;;;;4.28;2.63;;;17.50;99.90;;;;;;5012982;28;20030;-79
2022/06/09 01:19:31;;;;;;;5.10;3.15;;;17.40;99.90;;;;;;5011977;28;20022;-80
2022/06/09 01:22:18;;;;;;;5.82;2.70;;;17.40;99.90;;;;;;5012675;28;20037;-80
2022/06/09 01:25:06;;;;;;;6.38;3.13;;;17.40;99.90;;;;;;5013055;28;20033;-78
2022/06/09 01:27:50;;;;;;;4.47;2.92;;;17.40;99.90;;;;;;5012109;28;20507;-80
2022/06/09 01:30:20;;;;;;;10.00;4.22;;;17.40;99.90;;;;;;5012675;28;20054;-79
2022/06/09 01:32:58;;;;;;;8.07;4.40;;;17.30;99.90;;;;;;5012456;28;20134;-78
2022/06/09 01:35:43;;;;;;;9.60;3.90;;;17.40;99.90;;;;;;5016512;28;20037;-79
2022/06/09 01:38:10;;;;;;;5.38;3.80;;;17.30;99.90;;;;;;5032267;28;20095;-79
2022/06/09 01:40:36;;;;;;;5.38;4.10;;;17.30;99.90;;;;;;5031814;28;20025;-80
2022/06/09 01:43:04;;;;;;;7.25;3.83;;;17.30;99.90;;;;;;5031307;28;20586;-79
2022/06/09 01:45:51;;;;;;;5.65;3.80;;;17.30;99.90;;;;;;5032527;28;20083;-79
2022/06/09 01:48:20;;;;;;;8.23;4.95;;;17.30;99.90;;;;;;5032500;28;20029;-80
2022/06/09 01:50:51;;;;;;;7.82;4.55;;;17.30;99.90;;;;;;5031137;28;20053;-79
2022/06/09 01:53:35;;;;;;;8.95;4.97;;;17.30;99.90;;;;;;5032234;28;20045;-80
2022/06/09 01:56:12;;;;;;;10.35;5.45;;;17.30;99.90;;;;;;5031038;28;20068;-80
2022/06/09 01:58:52;;;;;;;9.63;5.15;;;17.30;99.90;;;;;;5032055;28;20026;-81
2022/06/09 02:01:21;;;;;;;11.82;5.47;;;17.30;99.90;;;;;;5030592;28;20115;-79
2022/06/09 02:03:50;;;;;;;12.02;4.90;;;17.30;99.90;;;;;;5032147;28;20097;-78
2022/06/09 02:06:17;;;;;;;9.10;5.90;;;17.20;99.90;;;;;;5031910;28;20033;-79
2022/06/09 02:08:43;;;;;;;11.53;6.70;;;17.30;99.90;;;;;;5031771;28;20131;-79
2022/06/09 02:11:11;;;;;;;9.35;5.40;;;17.30;99.90;;;;;;5031627;28;20267;-81
2022/06/09 02:13:42;;;;;;;;;;;17.20;99.90;;;;;;5031854;28;20438;-79
2022/06/09 02:16:14;;;;;;;12.25;6.80;;;17.20;99.90;;;;;;5030568;28;19909;-79
2022/06/09 02:18:44;;;;;;;14.75;5.90;;;17.20;99.90;;;;;;5032041;28;20025;-80
2022/06/09 02:21:20;;;;;;;9.75;6.45;;;17.10;99.90;;;;;;5031412;28;20033;-79
2022/06/09 02:23:47;;;;;;;13.65;7.40;;;17.10;99.90;;;;;;5031477;28;20242;-80
2022/06/09 02:26:14;;;;;;;17.10;8.70;;;17.20;99.90;;;;;;5030300;28;20276;-80
2022/06/09 02:28:40;;;;;;;19.48;8.93;;;17.10;99.90;;;;;;5031346;28;20341;-79
2022/06/09 02:31:09;;;;;;;20.77;10.05;;;17.20;99.90;;;;;;5029832;28;20135;-79
2022/06/09 02:33:35;;;;;;;19.70;9.75;;;17.20;99.90;;;;;;5031498;28;20030;-80
2022/06/09 02:36:01;;;;;;;14.63;9.25;;;17.10;99.90;;;;;;5030189;28;20025;-80
2022/06/09 02:38:26;;;;;;;16.00;8.75;;;17.20;99.90;;;;;;5030994;28;20075;-79
2022/06/09 02:40:54;;;;;;;16.38;9.40;;;17.20;99.90;;;;;;5030047;28;20492;-79
2022/06/09 02:43:21;;;;;;;16.33;9.25;;;17.20;99.90;;;;;;5031180;28;20030;-79
2022/06/09 02:45:47;;;;;;;20.98;10.27;;;17.10;99.90;;;;;;5031849;28;20065;-78
2022/06/09 02:48:13;;;;;;;14.57;9.52;;;17.10;99.90;;;;;;5030340;28;20472;-79
2022/06/09 02:50:40;;;;;;;19.63;11.38;;;17.10;99.90;;;;;;5031010;28;20060;-79
2022/06/09 02:53:06;;;;;;;17.70;10.95;;;17.00;99.90;;;;;;5030905;28;20034;-79
2022/06/09 02:55:32;;;;;;;21.98;11.57;;;17.00;99.90;;;;;;5031373;28;20034;-78
2022/06/09 02:57:58;;;;;;;20.77;10.82;;;17.00;99.90;;;;;;5031145;28;20172;-80
2022/06/09 03:00:24;;;;;;;21.23;11.18;;;17.10;99.90;;;;;;5031592;28;20096;-81
2022/06/09 03:02:54;;;;;;;20.50;11.30;;;17.10;99.90;;;;;;5029854;28;20647;-81
2022/06/09 03:05:20;;;;;;;18.95;11.95;;;17.20;99.90;;;;;;5031249;28;20539;-80
2022/06/09 03:07:46;;;;;;;19.90;12.77;;;17.10;99.90;;;;;;5030809;28;20038;-81
2022/06/09 03:10:12;;;;;;;18.48;12.55;;;17.10;99.90;;;;;;5030834;28;20121;-81
2022/06/09 03:12:38;;;;;;;18.85;12.18;;;17.10;99.90;;;;;;5031150;28;20026;-81
2022/06/09 03:15:07;;;;;;;21.40;13.02;;;17.00;99.90;;;;;;5030758;28;20483;-81
2022/06/09 03:17:35;;;;;;;22.33;12.52;;;17.10;99.90;;;;;;5030950;28;20049;-81
2022/06/09 03:20:01;;;;;;;23.93;13.63;;;17.20;99.90;;;;;;5030846;28;20025;-79
2022/06/09 03:22:27;;;;;;;21.33;14.10;;;17.20;99.90;;;;;;5030853;28;20278;-80
2022/06/09 03:24:53;;;;;;;22.38;14.38;;;17.10;99.90;;;;;;5031152;28;20052;-80
2022/06/09 03:27:18;;;;;;;28.15;13.65;;;17.20;99.90;;;;;;5031333;28;20027;-81
2022/06/09 03:29:44;;;;;;;21.30;13.38;;;17.10;99.90;;;;;;5029532;28;20033;-81
2022/06/09 03:32:10;;;;;;;21.55;13.60;;;17.20;99.90;;;;;;5030374;28;20049;-81
2022/06/09 03:34:36;;;;;;;21.92;14.48;;;17.20;99.90;;;;;;5029645;28;20048;-80
2022/06/09 03:37:02;;;;;;;23.95;14.50;;;17.20;99.90;;;;;;5030534;28;20536;-80
2022/06/09 03:39:27;;;;;;;23.17;14.25;;;17.20;99.90;;;;;;5030898;28;20049;-81
2022/06/09 03:41:53;;;;;;;26.45;14.43;;;17.20;99.90;;;;;;5030451;28;20041;-81
2022/06/09 03:44:19;;;;;;;23.70;15.30;;;17.20;99.90;;;;;;5030145;28;20025;-81
2022/06/09 03:46:45;;;;;;;23.92;15.32;;;17.10;99.90;;;;;;5030387;28;20029;-82
2022/06/09 03:49:11;;;;;;;27.67;14.93;;;17.20;99.90;;;;;;5030541;28;20115;-80
2022/06/09 03:51:37;;;;;;;25.27;14.13;;;17.20;99.90;;;;;;5030748;28;20447;-80
2022/06/09 03:54:03;;;;;;;27.67;14.73;;;17.10;99.90;;;;;;5030599;28;20120;-80
2022/06/09 03:56:28;;;;;;;26.20;15.82;;;17.20;99.90;;;;;;5030552;28;20105;-81
2022/06/09 03:58:54;;;;;;;20.13;13.63;;;17.20;99.90;;;;;;5030061;28;20034;-82
2022/06/09 04:01:20;;;;;;;28.52;14.38;;;17.20;99.90;;;;;;5034325;28;20359;-82
2022/06/09 04:03:48;;;;;;;20.42;13.98;;;17.20;99.90;;;;;;5034586;28;20036;-82
2022/06/09 04:06:21;;;;;;;26.98;14.27;;;17.20;99.90;;;;;;5032948;28;20116;-81
2022/06/09 04:08:48;;;;;;;21.52;13.70;;;17.00;99.90;;;;;;5032756;28;20425;-82
2022/06/09 04:11:15;;;;;;;29.23;15.43;;;17.10;99.90;;;;;;5034162;28;20025;-81
2022/06/09 04:13:41;;;;;;;22.23;14.55;;;17.10;99.90;;;;;;5034613;28;20034;-82
2022/06/09 04:16:17;;;;;;;26.55;14.93;;;17.10;99.90;;;;;;5036627;28;20402;-82
2022/06/09 04:18:44;;;;;;;25.08;14.02;;;17.00;99.90;;;;;;5037883;28;20102;-83
2022/06/09 04:21:12;;;;;;;22.50;13.52;;;17.00;99.90;;;;;;5034860;28;20099;-80
2022/06/09 04:23:38;;;;;;;27.73;13.88;;;17.10;99.90;;;;;;5033745;28;20060;-81
2022/06/09 04:26:17;;;;;;;27.60;13.85;;;17.10;99.90;;;;;;5034929;28;20042;-80
2022/06/09 04:28:44;;;;;;;25.10;12.93;;;17.20;99.90;;;;;;5033949;28;20034;-81
2022/06/09 04:31:14;;;;;;;23.40;12.82;;;17.20;99.90;;;;;;5033991;28;20506;-80
2022/06/09 04:33:40;;;;;;;19.60;12.50;;;17.30;99.90;;;;;;5036025;28;20025;-81
2022/06/09 04:36:13;;;;;;;22.60;12.88;;;17.20;99.90;;;;;;5034529;28;20049;-80
2022/06/09 04:38:39;;;;;;;24.73;12.00;;;17.20;99.90;;;;;;5033977;28;20033;-81
2022/06/09 04:41:12;;;;;;;26.42;12.73;;;17.30;99.90;;;;;;5032496;28;20053;-81
2022/06/09 04:43:40;;;;;;;27.73;13.07;;;17.30;99.90;;;;;;5033537;28;20052;-80
2022/06/09 04:46:16;;;;;;;22.63;13.23;;;17.30;99.90;;;;;;5033413;28;20061;-82
2022/06/09 04:48:42;;;;;;;23.00;13.07;;;17.40;99.90;;;;;;5034869;28;20022;-80
2022/06/09 04:51:14;;;;;;;22.55;12.45;;;17.40;99.90;;;;;;5034286;28;20136;-79
2022/06/09 04:53:40;;;;;;;20.92;13.40;;;17.40;99.90;;;;;;5033537;28;20033;-79
2022/06/09 04:56:17;;;;;;;22.67;12.88;;;17.40;99.90;;;;;;5032039;28;20049;-79
2022/06/09 04:58:43;;;;;;;24.80;12.97;;;17.40;99.90;;;;;;5033144;28;20029;-79
2022/06/09 05:01:35;;;;;;;20.40;13.02;;;17.50;99.90;;;;;;5033517;28;20087;-80
2022/06/09 05:04:01;;;;;;;25.23;13.85;;;17.50;99.90;;;;;;5031724;28;20052;-81
2022/06/09 05:06:28;;;;;;;27.08;12.95;;;17.30;99.90;;;;;;5033464;28;20406;-82
2022/06/09 05:08:55;;;;;;;21.52;13.13;;;17.40;99.90;;;;;;5033158;28;20095;-81
2022/06/09 05:11:23;;;;;;;26.42;13.40;;;17.40;99.90;;;;;;5030927;28;20030;-82
2022/06/09 05:13:50;;;;;;;29.85;12.88;;;17.50;99.90;;;;;;5032443;28;20065;-80
2022/06/09 05:16:16;;;;;;;23.50;13.02;;;17.50;99.90;;;;;;5032539;28;20025;-80
2022/06/09 05:18:42;;;;;;;25.90;13.35;;;17.40;99.90;;;;;;5033274;28;20030;-80
2022/06/09 05:21:15;;;;;;;24.15;14.25;;;17.50;99.90;;;;;;5032786;28;20363;-80
2022/06/09 05:23:41;;;;;;;25.05;12.95;;;17.50;99.90;;;;;;5032559;28;20525;-81
2022/06/09 05:26:14;;;;;;;21.73;13.77;;;17.50;99.90;;;;;;5032432;28;20045;-80
2022/06/09 05:28:40;;;;;;;23.02;13.15;;;17.50;99.90;;;;;;5032809;28;20036;-81
2022/06/09 05:31:15;;;;;;;23.10;13.07;;;17.50;99.90;;;;;;5032011;28;20045;-80
2022/06/09 05:33:42;;;;;;;23.92;13.77;;;17.50;99.90;;;;;;5032627;28;20022;-80
2022/06/09 05:36:10;;;;;;;28.13;14.05;;;17.50;99.90;;;;;;5032520;28;20108;-81
2022/06/09 05:46:49;;;;;;;32.05;14.80;;;17.60;99.90;;;;;;5032389;28;20048;-81
2022/06/09 05:49:16;;;;;;;22.88;12.77;;;17.70;99.90;;;;;;5032387;28;20029;-82
2022/06/09 05:51:42;;;;;;;20.55;13.15;;;17.80;99.90;;;;;;5032746;28;20108;-80
2022/06/09 05:54:07;;;;;;;25.15;13.88;;;17.90;99.90;;;;;;5031904;28;20149;-80
2022/06/09 05:56:33;;;;;;;21.55;12.15;;;17.80;99.90;;;;;;5031966;28;20084;-81
2022/06/09 05:58:59;;;;;;;23.35;14.43;;;17.90;99.90;;;;;;5031330;28;20026;-82
2022/06/09 06:01:25;;;;;;;24.52;12.73;;;17.80;99.90;;;;;;5031938;28;20066;-83
2022/06/09 06:03:51;;;;;;;23.55;11.75;;;17.80;99.90;;;;;;5030834;28;20023;-81
2022/06/09 06:06:38;;;;;;;23.33;13.45;;;17.80;99.90;;;;;;5031866;28;20462;-80
2022/06/09 06:09:12;;;;;;;21.23;12.20;;;17.70;99.90;;;;;;5031768;28;20029;-81
2022/06/09 06:11:38;;;;;;;21.55;12.00;;;17.90;99.90;;;;;;5031571;28;20036;-79
2022/06/09 06:14:05;;;;;;;24.23;12.50;;;17.90;99.90;;;;;;5031559;28;20033;-81
2022/06/09 06:16:31;;;;;;;19.13;12.10;;;17.90;99.90;;;;;;5030738;28;20083;-79
2022/06/09 06:18:56;;;;;;;27.92;11.75;;;17.90;99.90;;;;;;5031017;28;20427;-80
2022/06/09 06:21:23;;;;;;;22.08;10.65;;;18.00;99.90;;;;;;5031795;28;20496;-84
2022/06/09 06:23:49;;;;;;;22.70;10.23;;;17.80;99.90;;;;;;5030758;28;20099;-77
2022/06/09 06:26:16;;;;;;;18.67;10.20;;;17.70;99.90;;;;;;5030736;28;20041;-80
2022/06/09 06:28:42;;;;;;;23.33;9.43;;;17.60;99.90;;;;;;5030245;28;20105;-80
2022/06/09 06:31:13;;;;;;;20.92;9.45;;;17.70;99.90;;;;;;5030552;28;20128;-76
2022/06/09 06:33:39;;;;;;;20.55;9.52;;;17.80;99.90;;;;;;5030313;28;20025;-74
2022/06/09 06:36:11;;;;;;;21.02;8.93;;;17.90;99.80;;;;;;5030760;28;20288;-75
2022/06/09 06:38:38;;;;;;;18.73;8.77;;;18.10;99.90;;;;;;5030678;28;20037;-75
2022/06/09 06:41:12;;;;;;;24.60;10.07;;;18.00;99.70;;;;;;5030680;28;20045;-78
2022/06/09 06:43:38;;;;;;;23.27;10.07;;;18.10;99.60;;;;;;5030909;28;20049;-80
2022/06/09 06:46:12;;;;;;;14.68;7.97;;;18.20;99.40;;;;;;5030650;28;20037;-77
2022/06/09 06:48:37;;;;;;;19.70;8.90;;;18.10;99.60;;;;;;5029142;28;20029;-76
2022/06/09 06:51:12;;;;;;;14.48;7.78;;;18.00;99.50;;;;;;5010911;28;20057;-80
2022/06/09 06:53:38;;;;;;;15.95;8.48;;;18.00;99.40;;;;;;5009666;28;20106;-76
2022/06/09 06:56:10;;;;;;;15.95;8.50;;;17.90;99.40;;;;;;5010725;28;20046;-76
2022/06/09 06:58:36;;;;;;;12.02;8.32;;;17.80;99.60;;;;;;5010980;28;20032;-78
2022/06/09 07:01:03;;;;;;;16.48;8.13;;;17.80;99.70;;;;;;5011005;28;20026;-78
2022/06/09 07:03:30;;;;;;;14.43;8.23;;;17.70;99.50;;;;;;5011398;28;20033;-77
2022/06/09 07:05:56;;;;;;;13.00;8.30;;;17.60;99.60;;;;;;5009616;28;20105;-76
2022/06/09 07:08:24;;;;;;;18.17;8.95;;;17.70;99.60;;;;;;5009439;28;20156;-76
2022/06/09 07:10:51;;;;;;;16.77;8.40;;;17.70;99.60;;;;;;5010617;28;20030;-80
2022/06/09 07:13:17;;;;;;;13.57;7.93;;;17.50;99.70;;;;;;5010809;28;20078;-80
2022/06/09 07:15:43;;;;;;;18.35;7.75;;;17.60;99.70;;;;;;5011322;28;20645;-83
2022/06/09 07:18:09;;;;;;;15.55;8.10;;;17.50;99.70;;;;;;5010540;28;20498;-79
2022/06/09 07:20:38;;;;;;;18.08;7.90;;;17.60;99.70;;;;;;5010678;28;20069;-76
2022/06/09 07:23:03;;;;;;;16.67;8.23;;;17.70;99.70;;;;;;5010118;28;20045;-78
2022/06/09 07:25:29;;;;;;;11.38;6.93;;;17.90;99.60;;;;;;5010890;28;20467;-77
2022/06/09 07:27:55;;;;;;;17.45;7.68;;;17.90;99.30;;;;;;5010701;28;20101;-77
2022/06/09 07:30:23;;;;;;;14.73;7.63;;;18.00;99.30;;;;;;5011125;28;20054;-81
2022/06/09 07:32:49;;;;;;;15.40;7.80;;;18.00;99.10;;;;;;5009772;28;20034;-77
2022/06/09 07:35:19;;;;;;;13.68;7.35;;;18.00;99.10;;;;;;5013474;28;20368;-75
2022/06/09 07:37:45;;;;;;;14.48;7.03;;;18.10;98.90;;;;;;5014492;28;20367;-78
2022/06/09 07:40:12;;;;;;;13.02;6.80;;;18.10;98.90;;;;;;5014424;28;20124;-76
2022/06/09 07:42:38;;;;;;;12.55;7.47;;;18.20;98.90;;;;;;5014002;28;20337;-80
2022/06/09 07:45:06;;;;;;;14.10;7.53;;;18.30;98.70;;;;;;5014363;28;20026;-78
2022/06/09 07:47:32;;;;;;;;;;;18.30;98.60;;;;;;5015260;28;20029;-80
2022/06/09 07:49:57;;;;;;;15.73;7.90;;;18.50;98.40;;;;;;5014364;28;19921;-78
2022/06/09 07:52:23;;;;;;;18.52;7.78;;;18.60;98.40;;;;;;5013455;28;20030;-85
2022/06/09 07:54:49;;;;;;;13.30;8.00;;;18.60;98.00;;;;;;5014908;28;20057;-85
2022/06/09 07:57:15;;;;;;;13.07;7.00;;;18.50;98.20;;;;;;5014537;28;20048;-84
2022/06/09 07:59:42;;;;;;;14.18;7.22;;;18.70;98.00;;;;;;5013326;28;20032;-80
2022/06/09 08:02:10;;;;;;;15.00;7.30;;;18.80;97.80;;;;;;5013160;28;20057;-82
2022/06/09 08:04:35;;;;;;;16.90;7.15;;;18.60;97.80;;;;;;5014436;28;20476;-83
2022/06/09 08:07:02;;;;;;;17.73;7.25;;;18.70;97.70;;;;;;5014488;28;20262;-79
2022/06/09 08:09:29;;;;;;;13.35;7.63;;;18.80;97.70;;;;;;5013749;28;20022;-80
2022/06/09 08:11:55;;;;;;;12.98;6.88;;;18.80;97.70;;;;;;5014113;28;20030;-79
2022/06/09 08:14:21;;;;;;;13.85;6.47;;;18.80;97.70;;;;;;5013073;28;20049;-81
2022/06/09 08:16:46;;;;;;;13.43;6.70;;;18.80;97.80;;;;;;5014069;28;20026;-80
2022/06/09 08:19:12;;;;;;;11.90;6.00;;;18.70;97.70;;;;;;5014071;28;20034;-77
2022/06/09 08:21:37;;;;;;;12.65;6.32;;;18.70;97.70;;;;;;5014354;28;20101;-82
2022/06/09 08:24:04;;;;;;;16.52;7.15;;;18.50;97.90;;;;;;5013846;28;20496;-77
2022/06/09 08:26:30;;;;;;;12.23;6.25;;;18.60;98.00;;;;;;5013982;28;20482;-83
2022/06/09 08:28:56;;;;;;;16.70;6.40;;;18.60;97.90;;;;;;5013765;28;20472;-79
2022/06/09 08:31:21;;;;;;;14.05;6.53;;;18.60;98.10;;;;;;5013609;28;20038;-77
2022/06/09 08:33:47;;;;;;;15.18;6.50;;;18.70;98.30;;;;;;5013721;28;20048;-77
2022/06/09 08:36:14;;;;;;;11.75;6.90;;;19.20;98.00;;;;;;5012475;28;20033;-77
2022/06/09 08:38:40;;;;;;;14.75;7.38;;;19.50;97.40;;;;;;5013121;28;20026;-75
2022/06/09 08:41:34;;;;;;;12.43;5.88;;;20.10;96.70;;;;;;5012083;28;20040;-78
2022/06/09 08:44:18;;;;;;;12.43;6.22;;;20.10;96.30;;;;;;5013850;28;20407;-79
2022/06/09 08:46:53;;;;;;;11.50;5.60;;;20.00;96.30;;;;;;5011828;28;20122;-78
2022/06/09 08:49:38;;;;;;;13.70;6.55;;;20.20;96.00;;;;;;5013122;28;20426;-85
2022/06/09 08:52:11;;;;;;;8.35;5.13;;;20.30;95.50;;;;;;5014155;28;20439;-74
2022/06/09 08:54:37;;;;;;;11.00;5.55;;;20.50;95.20;;;;;;5013384;28;20034;-76
2022/06/09 08:57:15;;;;;;;12.80;5.85;;;20.50;95.00;;;;;;5013098;28;20092;-78
2022/06/09 08:59:42;;;;;;;;;;;20.40;95.00;;;;;;5013656;28;20099;-78
2022/06/09 09:02:36;;;;;;;11.75;5.55;;;20.20;95.10;;;;;;5011953;28;19920;-79
2022/06/09 09:05:09;;;;;;;12.30;5.75;;;20.10;95.10;;;;;;5012977;28;20080;-78
2022/06/09 09:07:37;;;;;;;11.60;5.20;;;20.10;95.60;;;;;;5012953;28;20109;-79
2022/06/09 09:10:31;;;;;;;11.38;5.03;;;20.30;95.80;;;;;;5011949;28;20033;-76
2022/06/09 09:13:20;;;;;;;9.07;5.28;;;20.30;95.20;;;;;;5011798;28;20207;-75
2022/06/09 09:15:58;;;;;;;14.10;4.53;;;20.10;95.30;;;;;;5013214;28;20095;-77
2022/06/09 09:18:44;;;;;;;11.00;5.03;;;20.20;95.50;;;;;;5013149;28;20049;-77
2022/06/09 09:21:32;;;;;;;8.90;4.60;;;20.80;94.40;;;;;;5008791;28;20038;-77
2022/06/09 09:24:21;;;;;;;9.07;4.78;;;21.20;94.10;;;;;;5010116;28;20034;-76
2022/06/09 09:27:08;;;;;;;12.10;5.53;;;21.40;93.80;;;;;;5012856;28;20022;-79
2022/06/09 09:29:34;;;;;;;;;;;21.10;94.10;;;;;;5013195;28;20037;-77
2022/06/09 09:32:12;;;;;;;10.93;5.93;;;20.80;94.30;;;;;;5012841;28;19921;-75
2022/06/09 09:34:41;;;;;;;17.15;6.13;;;20.80;94.60;;;;;;5012919;28;20140;-85
2022/06/09 09:37:26;;;;;;;13.07;5.43;;;20.40;94.60;;;;;;5012995;28;20397;-80
2022/06/09 09:39:57;;;;;;;9.90;5.43;;;20.90;94.90;;;;;;5012036;28;20044;-78
2022/06/09 09:42:32;;;;;;;11.63;6.35;;;21.00;94.30;;;;;;5012984;28;20468;-79
2022/06/09 09:45:12;;;;;;;16.48;5.47;;;20.80;94.30;;;;;;5012731;28;20519;-82
2022/06/09 09:47:47;;;;;;;12.07;5.15;;;21.20;94.50;;;;;;5012339;28;20045;-76
2022/06/09 09:50:31;;;;;;;8.15;4.60;;;21.00;94.40;;;;;;5027645;28;20456;-76
2022/06/09 09:53:16;;;;;;;9.77;5.10;;;21.40;94.10;;;;;;5011922;28;20038;-76
2022/06/09 09:55:55;;;;;;;13.45;5.55;;;21.90;93.30;;;;;;5027083;28;20125;-74
2022/06/09 09:58:38;;;;;;;15.05;5.90;;;21.90;93.20;;;;;;5012052;28;20030;-83
2022/06/09 10:01:16;;;;;;;12.40;6.18;;;21.70;92.80;;;;;;5012641;28;20022;-80
2022/06/09 10:09:39;;;;;;;9.90;5.05;;;22.10;92.60;;;;;;5012031;28;20049;-81
2022/06/09 10:12:17;;;;;;;;;;;22.00;92.30;;;;;;5013272;28;20464;-81
2022/06/09 10:15:10;;;;;;;18.30;6.05;;;21.90;92.30;;;;;;5012734;28;19917;-83
2022/06/09 10:17:44;;;;;;;11.85;4.45;;;21.50;92.40;;;;;;5012532;28;20034;-84
2022/06/09 10:20:17;;;;;;;12.90;4.90;;;21.70;92.40;;;;;;5028004;28;20452;-87
2022/06/09 10:23:01;;;;;;;12.65;4.90;;;21.90;92.10;;;;;;5011694;28;20033;-78
2022/06/09 10:26:01;;;;;;;11.75;4.47;;;22.00;91.70;;;;;;5012285;28;20054;-84
2022/06/09 10:29:06;;;;;;;6.47;3.30;;;22.30;91.50;;;;;;5011040;28;20049;-84
2022/06/09 10:31:47;;;;;;;11.85;4.13;;;22.70;91.30;;;;;;5012009;28;20099;-84
2022/06/09 10:35:08;;;;;;;8.55;4.28;;;22.70;91.10;;;;;;5011967;28;20052;-82
2022/06/09 10:37:41;;;;;;;11.80;4.60;;;22.50;91.30;;;;;;5008743;28;20050;-79
2022/06/09 10:40:13;;;;;;;8.65;4.13;;;22.70;91.10;;;;;;5011195;28;20377;-80
2022/06/09 10:43:02;;;;;;;7.10;3.00;;;23.00;90.90;;;;;;5012032;28;20118;-81
2022/06/09 10:45:33;;;;;;;6.85;3.55;;;23.20;90.70;;;;;;5011559;28;20041;-80
2022/06/09 10:57:40;;;;;;;7.30;4.55;;;22.90;90.00;;;;;;5011558;28;20419;-79
2022/06/09 11:00:13;;;;;;;12.20;4.65;;;23.00;89.70;;;;;;5011524;28;20026;-81
2022/06/09 11:02:45;;;;;;;9.25;4.45;;;22.40;90.40;;;;;;5011556;28;20085;-80
2022/06/09 11:05:15;;;;;;;10.95;4.35;;;22.20;90.70;;;;;;5011296;28;20115;-78
2022/06/09 11:08:00;;;;;;;8.45;4.45;;;22.30;90.90;;;;;;5026903;28;20038;-75
2022/06/09 11:10:28;;;;;;;6.88;4.28;;;22.10;91.00;;;;;;5010905;28;20036;-78
2022/06/09 11:13:11;;;;;;;;;;;22.00;91.20;;;;;;5011508;28;20021;-80
2022/06/09 11:16:14;;;;;;;10.85;4.30;;;22.10;91.50;;;;;;5012368;28;19909;-79
2022/06/09 11:19:18;;;;;;;9.70;4.32;;;22.40;91.30;;;;;;5011509;28;20141;-75
2022/06/09 11:21:58;;;;;;;8.10;3.72;;;22.20;91.30;;;;;;5017539;28;20038;-76
2022/06/09 11:25:00;;;;;;;9.55;4.32;;;22.40;91.10;;;;;;5010995;28;20148;-78
2022/06/09 11:27:40;;;;;;;10.90;4.07;;;22.50;91.10;;;;;;5019785;28;20125;-77
2022/06/09 11:30:31;;;;;;;6.55;3.92;;;22.60;91.30;;;;;;5010502;28;20118;-76
2022/06/09 11:33:33;;;;;;;11.75;5.60;;;22.50;91.40;;;;;;5010311;28;20080;-75
2022/06/09 11:36:20;;;;;;;11.15;4.45;;;22.20;91.90;;;;;;5010393;28;20034;-76
2022/06/09 11:39:04;;;;;;;12.77;6.22;;;22.10;92.00;;;;;;5010577;28;20168;-82
2022/06/09 11:41:49;;;;;;;9.65;5.65;;;21.90;92.10;;;;;;5010549;28;20113;-83
2022/06/09 11:44:35;;;;;;;13.32;5.72;;;21.70;92.50;;;;;;5025901;28;20042;-83
2022/06/09 11:47:05;;;;;;;16.35;6.13;;;21.80;92.30;;;;;;5011001;28;20049;-78
2022/06/09 11:49:42;;;;;;;13.10;7.28;;;21.70;92.40;;;;;;5010686;28;20038;-73
2022/06/09 11:52:28;;;;;;;15.15;5.88;;;21.50;92.90;;;;;;5010321;28;20068;-75
2022/06/09 11:54:58;;;;;;;9.13;5.77;;;21.60;92.80;;;;;;5025437;28;20520;-81
2022/06/09 11:57:42;;;;;;;20.10;7.13;;;21.40;93.00;;;;;;5010930;28;20018;-79
2022/06/09 12:00:26;;;;;;;11.70;5.53;;;21.70;93.00;;;;;;5010072;28;20160;-78
2022/06/09 12:03:32;;;;;;;9.52;5.90;;;21.60;92.60;;;;;;5025224;28;20045;-75
2022/06/09 12:06:21;;;;;;;13.30;7.10;;;21.70;92.70;;;;;;5009632;28;20136;-78
2022/06/09 12:09:18;;;;;;;12.93;5.57;;;21.70;92.70;;;;;;5009123;28;20534;-76
2022/06/09 12:12:25;;;;;;;7.97;4.15;;;22.00;92.60;;;;;;5007628;28;20364;-77
2022/06/09 12:15:19;;;;;;;8.98;4.30;;;22.40;92.20;;;;;;5009112;28;20053;-76
2022/06/09 12:18:07;;;;;;;10.82;5.00;;;22.60;91.80;;;;;;5009989;28;20062;-74
2022/06/09 12:20:58;;;;;;;5.13;3.92;;;22.50;91.80;;;;;;5026864;28;20038;-78
2022/06/09 12:23:36;;;;;;;7.28;4.05;;;22.60;91.60;;;;;;5013513;28;20037;-79
2022/06/09 12:26:42;;;;;;;10.07;4.38;;;22.90;91.00;;;;;;5013392;28;20041;-75
2022/06/09 12:29:34;;;;;;;6.40;3.72;;;22.50;90.60;;;;;;5012723;28;20587;-75
2022/06/09 12:32:09;;;;;;;8.82;4.10;;;22.70;90.70;;;;;;5013036;28;20061;-76
2022/06/09 12:34:42;;;;;;;10.23;3.97;;;22.60;90.50;;;;;;5013189;28;20452;-80
2022/06/09 12:37:28;;;;;;;7.75;2.72;;;22.90;90.70;;;;;;5013136;28;20038;-77
2022/06/09 12:39:59;;;;;;;5.45;1.98;;;23.10;89.80;;;;;;5012994;28;20091;-82
2022/06/09 12:42:25;;;;;;;6.05;1.73;;;23.00;86.80;;;;;;5013929;28;20049;-77
2022/06/09 12:45:00;;;;;;;7.20;2.10;;;23.10;86.10;;;;;;5014722;28;20050;-80
2022/06/09 12:47:26;;;;;;;7.85;2.10;;;23.10;86.50;;;;;;5030133;28;20034;-78
2022/06/09 12:49:55;;;;;;;4.75;1.50;;;22.90;84.70;;;;;;5014534;28;20149;-79
2022/06/09 12:52:43;;;;;;;6.03;1.73;;;23.00;84.60;;;;;;5013189;28;20441;-77
2022/06/09 12:55:22;;;;;;;5.00;2.30;;;23.00;83.60;;;;;;5028477;28;20038;-79
2022/06/09 12:57:52;;;;;;;6.45;1.83;;;22.90;83.90;;;;;;5013982;28;20037;-79
2022/06/09 13:00:23;;;;;;;10.32;2.00;;;22.80;84.30;;;;;;5013599;28;20038;-75
2022/06/09 13:02:49;;;;;;;2.45;1.50;;;22.70;84.80;;;;;;5013128;28;20026;-78
2022/06/09 13:05:27;;;;;;;5.30;1.90;;;22.70;85.20;;;;;;5012841;28;20148;-76
2022/06/09 13:08:01;;;;;;;8.13;2.15;;;22.90;85.50;;;;;;5012904;28;20030;-81
2022/06/09 13:10:33;;;;;;;11.35;5.05;;;23.00;85.30;;;;;;5012700;28;20102;-81
2022/06/09 13:13:06;;;;;;;7.78;2.40;;;23.20;85.20;;;;;;5028235;28;20112;-80
2022/06/09 13:15:53;;;;;;;2.03;1.58;;;23.40;85.30;;;;;;5013078;28;20420;-78
2022/06/09 13:18:36;;;;;;;4.68;1.80;;;23.40;83.80;;;;;;5013553;28;20042;-76
2022/06/09 13:21:22;;;;;;;9.10;1.88;;;23.40;83.10;;;;;;5013232;28;20460;-78
2022/06/09 13:23:51;;;;;;;5.25;1.70;;;23.10;81.90;;;;;;5012695;28;20444;-84
2022/06/09 13:26:34;;;;;;;5.18;1.40;;;23.00;82.10;;;;;;5012717;28;20064;-77
2022/06/09 13:29:05;;;;;;;5.93;1.50;;;23.10;82.20;;;;;;5008864;28;20047;-82
2022/06/09 13:31:31;;;;;;;3.78;1.35;;;23.10;82.20;;;;;;4996100;28;20037;-78